createdAt,value
2019-01-30T00:00:39.748Z,194.80
2019-01-30T00:03:12.065Z,160.63
2019-01-30T00:05:43.055Z,177.77
2019-01-30T00:08:13.360Z,167.83
2019-01-30T00:10:43.799Z,160.73
2019-01-30T00:13:14.462Z,160.60
2019-01-30T00:15:45.178Z,147.53
2019-01-30T00:18:15.656Z,139.97
2019-01-30T00:20:46.320Z,138.43
2019-01-30T00:23:16.793Z,141.37
2019-01-30T00:25:48.325Z,157.97
2019-01-30T00:28:18.929Z,141.73
2019-01-30T00:30:50.416Z,142.60
2019-01-30T00:33:20.846Z,138.47
2019-01-30T00:35:51.102Z,132.83
2019-01-30T00:38:21.439Z,128.77
2019-01-30T00:40:51.792Z,136.80
2019-01-30T00:43:22.104Z,134.10
2019-01-30T00:45:52.376Z,131.93
2019-01-30T00:48:22.720Z,128.23
2019-01-30T00:50:54.129Z,144.93
2019-01-30T00:53:24.634Z,145.53
2019-01-30T00:55:54.901Z,142.77
2019-01-30T00:58:25.494Z,130.13
2019-01-30T01:00:56.088Z,139.90
2019-01-30T01:03:26.356Z,152.13
2019-01-30T01:05:56.840Z,150.53
2019-01-30T01:08:27.080Z,143.50
2019-01-30T01:10:57.489Z,152.57
2019-01-30T01:13:28.116Z,153.83
2019-01-30T01:15:58.690Z,153.67
2019-01-30T01:18:29.071Z,157.47
2019-01-30T01:20:59.539Z,157.23
2019-01-30T01:23:29.838Z,157.60
2019-01-30T01:26:00.233Z,163.30
2019-01-30T01:28:30.653Z,151.40
2019-01-30T01:31:01.197Z,154.60
2019-01-30T01:33:31.462Z,160.50
2019-01-30T01:36:02.017Z,157.53
2019-01-30T01:38:32.479Z,160.73
2019-01-30T01:41:04.096Z,161.23
2019-01-30T01:43:34.760Z,167.23
2019-01-30T01:46:05.275Z,172.63
2019-01-30T01:48:35.680Z,164.03
2019-01-30T01:51:06.359Z,158.13
2019-01-30T01:53:37.416Z,157.50
2019-01-30T01:56:07.720Z,162.73
2019-01-30T01:58:37.905Z,158.77
2019-01-30T02:01:08.374Z,150.90
2019-01-30T02:03:38.701Z,148.53
2019-01-30T02:06:09.321Z,155.47
2019-01-30T02:08:39.755Z,146.70
2019-01-30T02:11:10.153Z,157.97
2019-01-30T02:13:40.542Z,155.13
2019-01-30T02:16:10.901Z,154.83
2019-01-30T02:18:41.371Z,166.20
2019-01-30T02:21:11.720Z,145.77
2019-01-30T02:23:42.198Z,157.00
2019-01-30T02:26:12.631Z,152.57
2019-01-30T02:28:42.916Z,146.30
2019-01-30T02:31:13.396Z,157.80
2019-01-30T02:33:43.944Z,136.23
2019-01-30T02:36:14.239Z,158.80
2019-01-30T02:38:44.529Z,142.97
2019-01-30T02:41:14.919Z,148.43
2019-01-30T02:43:45.344Z,138.23
2019-01-30T02:46:15.801Z,138.07
2019-01-30T02:48:46.378Z,143.43
2019-01-30T02:51:16.732Z,142.83
2019-01-30T02:53:47.206Z,123.30
2019-01-30T02:56:17.486Z,154.70
2019-01-30T02:58:47.740Z,144.77
2019-01-30T03:01:18.153Z,129.63
2019-01-30T03:03:48.416Z,148.57
2019-01-30T03:06:18.918Z,156.50
2019-01-30T03:08:49.246Z,128.23
2019-01-30T03:11:19.698Z,158.67
2019-01-30T03:13:50.274Z,159.60
2019-01-30T03:16:20.512Z,172.33
2019-01-30T03:18:51.014Z,154.07
2019-01-30T03:21:21.298Z,158.40
2019-01-30T03:23:51.600Z,162.63
2019-01-30T03:26:22.246Z,152.03
2019-01-30T03:28:52.609Z,154.57
2019-01-30T03:31:22.935Z,155.33
2019-01-30T03:33:53.467Z,147.40
2019-01-30T03:36:23.804Z,165.40
2019-01-30T03:38:54.346Z,169.97
2019-01-30T03:41:24.727Z,159.30
2019-01-30T03:43:55.294Z,172.43
2019-01-30T03:46:25.586Z,149.93
2019-01-30T03:48:56.326Z,159.77
2019-01-30T03:51:26.599Z,157.03
2019-01-30T03:53:57.198Z,162.80
2019-01-30T03:56:27.425Z,173.50
2019-01-30T03:58:58.169Z,169.27
2019-01-30T04:01:28.565Z,175.47
2019-01-30T04:03:59.278Z,153.10
2019-01-30T04:06:29.617Z,166.50
2019-01-30T04:09:00.070Z,143.50
2019-01-30T04:11:30.634Z,180.93
2019-01-30T04:14:00.944Z,189.27
2019-01-30T04:16:31.342Z,173.53
2019-01-30T04:19:01.731Z,181.50
2019-01-30T04:21:32.133Z,187.80
2019-01-30T04:24:02.410Z,183.90
2019-01-30T04:26:33.258Z,193.20
2019-01-30T04:29:03.504Z,190.23
2019-01-30T04:31:38.369Z,180.10
2019-01-30T04:34:06.721Z,149.33
2019-01-30T04:36:37.104Z,191.63
2019-01-30T04:39:09.236Z,190.57
2019-01-30T04:41:39.558Z,179.50
2019-01-30T04:44:09.902Z,186.47
2019-01-30T04:46:40.663Z,186.53
2019-01-30T04:49:11.067Z,175.67
2019-01-30T04:51:41.770Z,171.60
2019-01-30T04:54:12.398Z,178.30
2019-01-30T04:56:43.125Z,183.40
2019-01-30T04:59:13.754Z,175.70
2019-01-30T05:01:49.644Z,171.97
2019-01-30T05:04:16.779Z,147.37
2019-01-30T05:06:48.564Z,159.93
2019-01-30T05:09:19.471Z,164.50
2019-01-30T05:11:50.023Z,150.00
2019-01-30T05:14:20.628Z,165.70
2019-01-30T05:16:51.168Z,170.53
2019-01-30T05:19:21.752Z,157.73
2019-01-30T05:21:52.116Z,134.67
2019-01-30T05:24:22.689Z,161.13
2019-01-30T05:26:53.136Z,161.47
2019-01-30T05:29:23.499Z,157.03
2019-01-30T05:32:00.828Z,153.80
2019-01-30T05:34:26.009Z,146.63
2019-01-30T05:36:56.267Z,140.10
2019-01-30T05:39:26.688Z,145.33
2019-01-30T05:41:57.139Z,144.90
2019-01-30T05:44:27.837Z,138.43
2019-01-30T05:46:58.128Z,143.57
2019-01-30T05:49:29.247Z,144.93
2019-01-30T05:51:59.898Z,143.30
2019-01-30T05:54:30.335Z,132.87
2019-01-30T05:57:00.633Z,144.43
2019-01-30T05:59:31.049Z,139.43
2019-01-30T06:02:11.480Z,112.13
2019-01-30T06:04:33.539Z,122.83
2019-01-30T06:07:04.064Z,126.97
2019-01-30T06:09:34.621Z,133.17
2019-01-30T06:12:05.902Z,125.80
2019-01-30T06:14:36.401Z,138.87
2019-01-30T06:17:09.605Z,137.63
2019-01-30T06:19:39.928Z,123.33
2019-01-30T06:22:10.538Z,118.17
2019-01-30T06:24:41.108Z,113.63
2019-01-30T06:27:11.501Z,99.80
2019-01-30T06:29:42.167Z,133.73
2019-01-30T06:32:21.495Z,113.50
2019-01-30T06:34:44.958Z,110.20
2019-01-30T06:37:18.147Z,103.87
2019-01-30T06:39:47.539Z,97.50
2019-01-30T06:42:17.994Z,106.83
2019-01-30T06:44:49.933Z,104.30
2019-01-30T06:47:20.542Z,116.37
2019-01-30T06:49:50.993Z,108.63
2019-01-30T06:52:21.368Z,111.83
2019-01-30T06:54:51.791Z,90.30
2019-01-30T06:57:22.401Z,89.80
2019-01-30T06:59:52.913Z,97.83
2019-01-30T07:02:32.117Z,94.73
2019-01-30T07:04:55.638Z,88.90
2019-01-30T07:07:26.101Z,85.20
2019-01-30T07:09:56.567Z,93.73
2019-01-30T07:12:26.859Z,96.73
2019-01-30T07:14:57.213Z,87.93
2019-01-30T07:17:27.776Z,95.97
2019-01-30T07:19:58.172Z,95.63
2019-01-30T07:22:28.702Z,94.23
2019-01-30T07:24:59.337Z,91.10
2019-01-30T07:27:29.672Z,95.87
2019-01-30T07:30:00.218Z,88.03
2019-01-30T07:32:30.618Z,94.17
2019-01-30T07:35:00.900Z,89.43
2019-01-30T07:37:31.910Z,102.53
2019-01-30T07:40:02.175Z,93.90
2019-01-30T07:42:32.715Z,99.57
2019-01-30T07:45:04.963Z,106.47
2019-01-30T07:47:35.636Z,88.83
2019-01-30T07:50:07.123Z,83.30
2019-01-30T07:52:37.547Z,91.10
2019-01-30T07:55:12.545Z,90.27
2019-01-30T07:57:43.162Z,83.87
2019-01-30T08:00:33.349Z,89.57
2019-01-30T08:03:03.907Z,79.07
2019-01-30T08:05:34.472Z,77.33
2019-01-30T08:08:05.480Z,76.40
2019-01-30T08:10:36.368Z,74.23
2019-01-30T08:13:07.319Z,84.13
2019-01-30T08:15:37.755Z,77.53
2019-01-30T08:18:08.127Z,78.07
2019-01-30T08:20:38.949Z,80.13
2019-01-30T08:23:09.729Z,80.23
2019-01-30T08:25:40.801Z,71.53
2019-01-30T08:28:11.958Z,61.07
2019-01-30T08:30:42.671Z,67.93
2019-01-30T08:33:13.432Z,65.67
2019-01-30T08:35:43.891Z,72.57
2019-01-30T08:38:14.399Z,57.70
2019-01-30T08:40:44.930Z,66.40
2019-01-30T08:43:16.207Z,66.70
2019-01-30T08:45:46.753Z,62.67
2019-01-30T08:48:17.558Z,56.43
2019-01-30T08:50:48.252Z,64.57
2019-01-30T08:53:18.731Z,64.33
2019-01-30T08:55:49.093Z,63.30
2019-01-30T08:58:19.671Z,66.83
2019-01-30T09:00:50.267Z,62.63
2019-01-30T09:03:20.936Z,57.10
2019-01-30T09:05:51.854Z,68.37
2019-01-30T09:08:22.446Z,64.07
2019-01-30T09:10:53.019Z,73.33
2019-01-30T09:13:25.630Z,58.83
2019-01-30T09:15:56.098Z,62.33
2019-01-30T09:18:26.771Z,46.50
2019-01-30T09:20:57.541Z,57.50
2019-01-30T09:23:28.327Z,52.00
2019-01-30T09:25:58.717Z,50.30
2019-01-30T09:28:29.213Z,51.20
2019-01-30T09:30:59.772Z,53.70
2019-01-30T09:33:30.291Z,53.83
2019-01-30T09:36:01.547Z,47.40
2019-01-30T09:38:32.000Z,47.10
2019-01-30T09:41:02.488Z,51.37
2019-01-30T09:43:33.326Z,57.03
2019-01-30T09:46:03.673Z,54.27
2019-01-30T09:48:36.771Z,52.27
2019-01-30T09:51:06.305Z,55.33
2019-01-30T09:53:36.768Z,50.13
2019-01-30T09:56:06.973Z,56.87
2019-01-30T09:58:37.541Z,56.77
2019-01-30T10:01:07.951Z,54.37
2019-01-30T10:03:38.433Z,56.77
2019-01-30T10:06:09.173Z,54.43
2019-01-30T10:08:39.722Z,56.80
2019-01-30T10:11:10.381Z,60.27
2019-01-30T10:13:40.711Z,59.20
2019-01-30T10:16:11.466Z,64.37
2019-01-30T10:18:41.785Z,67.20
2019-01-30T10:21:12.240Z,63.73
2019-01-30T10:23:42.924Z,64.03
2019-01-30T10:26:13.245Z,61.00
2019-01-30T10:28:43.650Z,66.07
2019-01-30T10:31:13.947Z,62.07
2019-01-30T10:33:46.595Z,64.53
2019-01-30T10:36:18.218Z,68.50
2019-01-30T10:38:48.813Z,68.43
2019-01-30T10:41:19.354Z,71.07
2019-01-30T10:43:50.579Z,69.67
2019-01-30T10:46:21.180Z,66.90
2019-01-30T10:48:51.709Z,67.03
2019-01-30T10:51:22.049Z,68.37
2019-01-30T10:53:52.551Z,71.77
2019-01-30T10:56:22.938Z,72.07
2019-01-30T10:58:53.570Z,71.17
2019-01-30T11:01:23.935Z,75.10
2019-01-30T11:03:57.357Z,74.17
2019-01-30T11:06:26.430Z,67.10
2019-01-30T11:08:57.107Z,68.87
2019-01-30T11:11:27.723Z,73.13
2019-01-30T11:13:58.001Z,69.37
2019-01-30T11:16:28.602Z,71.77
2019-01-30T11:18:59.105Z,80.17
2019-01-30T11:21:30.145Z,68.10
2019-01-30T11:24:00.745Z,71.97
2019-01-30T11:26:31.285Z,73.73
2019-01-30T11:29:01.897Z,69.80
2019-01-30T11:31:32.603Z,72.97
2019-01-30T11:34:07.655Z,70.33
2019-01-30T11:36:35.640Z,73.83
2019-01-30T11:39:07.750Z,75.70
2019-01-30T11:41:38.585Z,70.97
2019-01-30T11:44:09.094Z,66.57
2019-01-30T11:46:39.705Z,65.83
2019-01-30T11:49:11.455Z,71.30
2019-01-30T11:51:42.069Z,65.67
2019-01-30T11:54:12.749Z,59.80
2019-01-30T11:56:43.246Z,62.57
2019-01-30T11:59:13.810Z,74.60
2019-01-30T12:01:44.467Z,64.50
2019-01-30T12:04:18.006Z,56.67
2019-01-30T12:06:47.390Z,66.07
2019-01-30T12:09:17.981Z,65.17
2019-01-30T12:11:49.556Z,64.33
2019-01-30T12:14:20.228Z,66.63
2019-01-30T12:16:51.260Z,75.80
2019-01-30T12:19:21.709Z,66.70
2019-01-30T12:21:52.160Z,66.03
2019-01-30T12:24:22.627Z,70.37
2019-01-30T12:26:53.111Z,73.03
2019-01-30T12:29:23.554Z,74.10
2019-01-30T12:31:53.955Z,76.80
2019-01-30T12:34:28.356Z,72.47
2019-01-30T12:36:56.262Z,64.43
2019-01-30T12:39:26.625Z,71.37
2019-01-30T12:41:56.969Z,64.60
2019-01-30T12:44:27.437Z,68.63
2019-01-30T12:46:57.961Z,65.13
2019-01-30T12:49:28.415Z,65.93
2019-01-30T12:51:59.046Z,73.93
2019-01-30T12:54:29.762Z,68.23
2019-01-30T12:57:00.583Z,67.80
2019-01-30T12:59:31.149Z,70.50
2019-01-30T13:02:02.084Z,69.07
2019-01-30T13:04:38.655Z,59.97
2019-01-30T13:07:04.428Z,60.73
2019-01-30T13:09:34.699Z,67.97
2019-01-30T13:12:05.159Z,65.27
2019-01-30T13:14:35.586Z,60.67
2019-01-30T13:17:05.904Z,56.70
2019-01-30T13:19:36.224Z,61.00
2019-01-30T13:22:06.600Z,57.70
2019-01-30T13:24:38.466Z,59.87
2019-01-30T13:27:09.274Z,54.27
2019-01-30T13:29:39.748Z,59.27
2019-01-30T13:32:09.423Z,54.37
2019-01-30T13:34:48.831Z,54.23
2019-01-30T13:37:11.932Z,63.20
2019-01-30T13:39:42.408Z,53.20
2019-01-30T13:42:12.892Z,54.40
2019-01-30T13:44:43.226Z,60.27
2019-01-30T13:47:13.590Z,53.77
2019-01-30T13:49:43.900Z,59.43
2019-01-30T13:52:14.262Z,63.40
2019-01-30T13:54:44.803Z,50.10
2019-01-30T13:57:15.094Z,52.87
2019-01-30T13:59:45.434Z,59.20
2019-01-30T14:02:16.027Z,52.20
2019-01-30T14:04:47.398Z,53.03
2019-01-30T14:07:18.196Z,50.67
2019-01-30T14:09:48.542Z,57.07
2019-01-30T14:12:18.788Z,51.47
2019-01-30T14:14:49.338Z,53.63
2019-01-30T14:17:19.921Z,57.27
2019-01-30T14:19:50.407Z,56.67
2019-01-30T14:22:20.898Z,67.40
2019-01-30T14:24:53.215Z,67.43
2019-01-30T14:27:23.725Z,74.43
2019-01-30T14:29:58.270Z,70.83
2019-01-30T14:32:26.652Z,74.10
2019-01-30T14:34:57.260Z,61.93
2019-01-30T14:37:27.682Z,79.17
2019-01-30T14:39:58.166Z,76.70
2019-01-30T14:42:28.767Z,71.97
2019-01-30T14:44:59.364Z,69.00
2019-01-30T14:47:30.032Z,87.97
2019-01-30T14:50:00.876Z,86.87
2019-01-30T14:52:31.904Z,91.40
2019-01-30T14:55:02.284Z,95.23
2019-01-30T14:57:32.759Z,83.53
2019-01-30T15:00:03.382Z,93.93
2019-01-30T15:02:34.880Z,89.57
2019-01-30T15:05:07.141Z,95.67
2019-01-30T15:07:37.832Z,94.77
2019-01-30T15:10:10.101Z,90.47
2019-01-30T15:12:40.872Z,99.17
2019-01-30T15:15:13.570Z,101.83
2019-01-30T15:17:44.467Z,98.83
2019-01-30T15:20:17.586Z,94.73
2019-01-30T15:22:49.320Z,106.37
2019-01-30T15:25:23.760Z,101.63
2019-01-30T15:27:54.410Z,107.50
2019-01-30T15:30:27.328Z,102.07
2019-01-30T15:32:57.760Z,121.83
2019-01-30T15:35:33.693Z,130.50
2019-01-30T15:38:01.539Z,147.20
2019-01-30T15:40:33.033Z,156.87
2019-01-30T15:43:03.613Z,170.00
2019-01-30T15:45:34.470Z,178.00
2019-01-30T15:48:05.263Z,180.60
2019-01-30T15:50:36.498Z,190.17
2019-01-30T15:53:10.011Z,184.87
2019-01-30T15:55:40.757Z,164.70
2019-01-30T15:58:12.353Z,171.23
2019-01-30T16:00:55.081Z,158.47
2019-01-30T16:03:25.526Z,146.70
2019-01-30T16:05:56.589Z,148.20
2019-01-30T16:08:27.168Z,137.23
2019-01-30T16:10:57.855Z,157.00
2019-01-30T16:13:28.506Z,176.83
2019-01-30T16:16:01.262Z,176.90
2019-01-30T16:18:32.042Z,175.53
2019-01-30T16:21:02.586Z,159.93
2019-01-30T16:23:32.939Z,147.70
2019-01-30T16:26:03.334Z,144.03
2019-01-30T16:28:34.174Z,127.43
2019-01-30T16:31:05.067Z,139.57
2019-01-30T16:33:35.384Z,136.77
2019-01-30T16:36:06.270Z,149.07
2019-01-30T16:38:36.727Z,154.57
2019-01-30T16:41:07.563Z,141.70
2019-01-30T16:43:38.331Z,147.43
2019-01-30T16:46:09.010Z,141.83
2019-01-30T16:48:39.691Z,149.87
2019-01-30T16:51:10.107Z,149.07
2019-01-30T16:53:40.619Z,135.53
2019-01-30T16:56:11.179Z,136.40
2019-01-30T16:58:41.829Z,138.33
2019-01-30T17:01:12.851Z,126.10
2019-01-30T17:03:43.104Z,120.17
2019-01-30T17:06:13.565Z,109.90
2019-01-30T17:08:44.165Z,121.57
2019-01-30T17:11:14.824Z,113.77
2019-01-30T17:13:45.392Z,116.07
2019-01-30T17:16:16.134Z,115.00
2019-01-30T17:18:47.829Z,121.17
2019-01-30T17:21:18.468Z,127.07
2019-01-30T17:23:48.968Z,138.40
2019-01-30T17:26:19.892Z,133.30
2019-01-30T17:28:50.265Z,153.70
2019-01-30T17:31:30.772Z,159.23
2019-01-30T17:34:01.154Z,148.10
2019-01-30T17:36:31.486Z,150.20
2019-01-30T17:39:01.782Z,151.50
2019-01-30T17:41:33.848Z,142.13
2019-01-30T17:44:04.521Z,145.10
2019-01-30T17:46:34.827Z,157.10
2019-01-30T17:49:05.343Z,157.83
2019-01-30T17:51:35.764Z,162.33
2019-01-30T17:54:06.230Z,164.80
2019-01-30T17:56:36.757Z,156.33
2019-01-30T17:59:07.181Z,152.87
2019-01-30T18:01:37.974Z,151.10
2019-01-30T18:04:09.397Z,163.80
2019-01-30T18:06:39.824Z,153.80
2019-01-30T18:09:11.106Z,152.83
2019-01-30T18:11:41.791Z,148.93
2019-01-30T18:14:12.123Z,158.90
2019-01-30T18:16:42.581Z,168.77
2019-01-30T18:19:13.000Z,161.83
2019-01-30T18:21:43.397Z,190.73
2019-01-30T18:24:13.762Z,196.93
2019-01-30T18:26:45.040Z,177.77
2019-01-30T18:29:15.364Z,176.37
2019-01-30T18:31:45.834Z,167.43
2019-01-30T18:34:17.267Z,186.07
2019-01-30T18:36:49.310Z,161.60
2019-01-30T18:39:19.830Z,178.93
2019-01-30T18:41:51.111Z,192.53
2019-01-30T18:44:21.783Z,180.27
2019-01-30T18:46:52.422Z,179.87
2019-01-30T18:49:23.144Z,169.17
2019-01-30T18:51:54.230Z,176.87
2019-01-30T18:54:24.841Z,168.67
2019-01-30T18:56:55.743Z,166.17
2019-01-30T18:59:26.250Z,174.87
2019-01-30T19:01:56.682Z,156.23
2019-01-30T19:04:27.589Z,183.73
2019-01-30T19:06:58.042Z,184.87
2019-01-30T19:09:28.504Z,172.90
2019-01-30T19:11:58.958Z,174.43
2019-01-30T19:14:30.176Z,191.97
2019-01-30T19:17:00.842Z,142.27
2019-01-30T19:19:31.364Z,194.77
2019-01-30T19:22:01.657Z,189.87
2019-01-30T19:24:32.009Z,194.43
2019-01-30T19:27:02.434Z,193.83
2019-01-30T19:29:33.080Z,188.47
2019-01-30T19:32:03.447Z,188.90
2019-01-30T19:34:34.011Z,184.57
2019-01-30T19:37:04.792Z,191.07
2019-01-30T19:39:35.206Z,194.37
2019-01-30T19:42:05.708Z,214.73
2019-01-30T19:44:36.308Z,205.67
2019-01-30T19:47:06.752Z,216.40
2019-01-30T19:49:37.781Z,222.40
2019-01-30T19:52:08.152Z,225.87
2019-01-30T19:54:38.536Z,232.40
2019-01-30T19:57:08.938Z,235.13
2019-01-30T19:59:39.884Z,225.80
2019-01-30T20:02:10.331Z,241.23
2019-01-30T20:04:40.658Z,244.83
2019-01-30T20:07:14.833Z,246.43
2019-01-30T20:09:44.940Z,234.50
2019-01-30T20:12:15.905Z,254.27
2019-01-30T20:14:46.486Z,266.73
2019-01-30T20:17:17.142Z,260.30
2019-01-30T20:19:47.787Z,260.27
2019-01-30T20:22:18.282Z,293.73
2019-01-30T20:24:50.045Z,288.90
2019-01-30T20:27:20.569Z,314.63
2019-01-30T20:29:51.262Z,300.07
2019-01-30T20:32:21.874Z,280.70
2019-01-30T20:34:52.784Z,260.70
2019-01-30T20:37:26.269Z,269.77
2019-01-30T20:39:56.362Z,255.93
2019-01-30T20:42:26.711Z,266.20
2019-01-30T20:44:57.462Z,256.50
2019-01-30T20:47:28.117Z,269.77
2019-01-30T20:49:59.741Z,282.57
2019-01-30T20:52:30.142Z,264.60
2019-01-30T20:55:00.848Z,251.40
2019-01-30T20:57:32.423Z,288.80
2019-01-30T21:00:03.449Z,280.87
2019-01-30T21:02:34.458Z,288.00
2019-01-30T21:05:05.252Z,276.97
2019-01-30T21:07:37.294Z,266.33
2019-01-30T21:10:12.162Z,258.30
2019-01-30T21:12:42.988Z,254.73
2019-01-30T21:15:14.171Z,269.73
2019-01-30T21:17:45.435Z,283.50
2019-01-30T21:20:16.503Z,286.97
2019-01-30T21:22:47.049Z,255.47
2019-01-30T21:25:19.320Z,292.60
2019-01-30T21:27:49.928Z,297.43
2019-01-30T21:30:32.460Z,293.63
2019-01-30T21:33:03.038Z,263.03
2019-01-30T21:35:33.469Z,293.53
2019-01-30T21:38:03.837Z,294.80
2019-01-30T21:40:34.653Z,285.10
2019-01-30T21:43:05.460Z,290.87
2019-01-30T21:45:36.698Z,290.37
2019-01-30T21:48:07.477Z,293.90
2019-01-30T21:50:38.131Z,293.20
2019-01-30T21:53:08.704Z,276.73
2019-01-30T21:55:39.331Z,275.93
2019-01-30T21:58:10.519Z,291.80
2019-01-30T22:00:41.118Z,254.87
2019-01-30T22:03:11.987Z,277.13
2019-01-30T22:05:42.494Z,280.47
2019-01-30T22:08:13.974Z,254.07
2019-01-30T22:10:45.871Z,268.40
2019-01-30T22:13:17.024Z,264.53
2019-01-30T22:15:48.122Z,272.63
2019-01-30T22:18:19.158Z,260.80
2019-01-30T22:20:49.859Z,259.63
2019-01-30T22:23:20.569Z,236.63
2019-01-30T22:25:51.077Z,254.20
2019-01-30T22:28:21.894Z,233.60
2019-01-30T22:30:52.387Z,209.47
2019-01-30T22:33:23.066Z,247.07
2019-01-30T22:35:53.487Z,258.47
2019-01-30T22:38:23.805Z,258.60
2019-01-30T22:40:54.245Z,253.07
2019-01-30T22:43:24.619Z,244.33
2019-01-30T22:45:56.859Z,258.67
2019-01-30T22:48:27.549Z,238.27
2019-01-30T22:50:58.144Z,240.53
2019-01-30T22:53:28.586Z,259.97
2019-01-30T22:55:58.898Z,241.27
2019-01-30T22:58:29.366Z,243.43
2019-01-30T23:01:23.344Z,260.00
2019-01-30T23:05:08.359Z,244.40
2019-01-30T23:07:52.295Z,250.27
2019-01-30T23:10:49.328Z,248.57
2019-01-30T23:13:40.171Z,263.23
2019-01-30T23:16:47.347Z,250.67
2019-01-30T23:19:42.069Z,227.80
2019-01-30T23:22:50.010Z,229.57
2019-01-30T23:25:57.305Z,248.23
2019-01-30T23:28:57.901Z,226.27
2019-01-30T23:31:58.558Z,242.10
2019-01-30T23:34:55.844Z,236.73
2019-01-30T23:37:54.969Z,240.70
2019-01-30T23:40:35.542Z,242.27
2019-01-30T23:43:45.743Z,213.60
2019-01-30T23:46:56.692Z,235.73
2019-01-30T23:49:50.304Z,219.10
2019-01-30T23:52:43.332Z,225.10
2019-01-30T23:55:23.782Z,225.73
2019-01-30T23:58:10.337Z,221.57
